sensor_id;sensor_type;location;lat;lon;timestamp;P1;durP1;ratioP1;P2;durP2;ratioP2
58621;SDS011;44389;51.578;5.456;2022-10-16T00:00:39;18.90;;;8.13;;
58621;SDS011;44389;51.578;5.456;2022-10-16T00:03:06;15.75;;;8.75;;
58621;SDS011;44389;51.578;5.456;2022-10-16T00:05:32;15.25;;;8.20;;
58621;SDS011;44389;51.578;5.456;2022-10-16T00:07:57;17.80;;;8.13;;
58621;SDS011;44389;51.578;5.456;2022-10-16T00:10:22;13.05;;;7.70;;
58621;SDS011;44389;51.578;5.456;2022-10-16T00:12:48;15.60;;;8.18;;
58621;SDS011;44389;51.578;5.456;2022-10-16T00:15:14;18.98;;;8.20;;
58621;SDS011;44389;51.578;5.456;2022-10-16T00:17:39;19.65;;;8.32;;
58621;SDS011;44389;51.578;5.456;2022-10-16T00:20:05;21.77;;;8.07;;
58621;SDS011;44389;51.578;5.456;2022-10-16T00:22:30;15.55;;;7.70;;
58621;SDS011;44389;51.578;5.456;2022-10-16T00:24:56;14.02;;;7.72;;
58621;SDS011;44389;51.578;5.456;2022-10-16T00:27:21;18.08;;;8.40;;
58621;SDS011;44389;51.578;5.456;2022-10-16T00:29:50;21.33;;;8.43;;
58621;SDS011;44389;51.578;5.456;2022-10-16T00:32:17;16.90;;;7.95;;
58621;SDS011;44389;51.578;5.456;2022-10-16T00:34:43;21.95;;;8.18;;
58621;SDS011;44389;51.578;5.456;2022-10-16T00:37:08;18.00;;;7.00;;
58621;SDS011;44389;51.578;5.456;2022-10-16T00:39:33;18.65;;;7.93;;
58621;SDS011;44389;51.578;5.456;2022-10-16T00:41:59;18.58;;;7.90;;
58621;SDS011;44389;51.578;5.456;2022-10-16T00:47:12;16.92;;;7.65;;
58621;SDS011;44389;51.578;5.456;2022-10-16T00:49:42;19.95;;;7.75;;
58621;SDS011;44389;51.578;5.456;2022-10-16T00:52:08;13.75;;;7.53;;
58621;SDS011;44389;51.578;5.456;2022-10-16T00:54:33;15.02;;;7.35;;
58621;SDS011;44389;51.578;5.456;2022-10-16T00:57:03;15.35;;;7.60;;
58621;SDS011;44389;51.578;5.456;2022-10-16T00:59:32;15.00;;;7.80;;
58621;SDS011;44389;51.578;5.456;2022-10-16T01:01:59;15.23;;;7.10;;
58621;SDS011;44389;51.578;5.456;2022-10-16T01:04:25;15.48;;;6.97;;
58621;SDS011;44389;51.578;5.456;2022-10-16T01:06:55;16.83;;;7.38;;
58621;SDS011;44389;51.578;5.456;2022-10-16T01:09:37;18.15;;;7.53;;
58621;SDS011;44389;51.578;5.456;2022-10-16T01:12:14;14.35;;;7.35;;
58621;SDS011;44389;51.578;5.456;2022-10-16T01:14:58;12.68;;;6.82;;
58621;SDS011;44389;51.578;5.456;2022-10-16T01:17:37;17.02;;;7.00;;
58621;SDS011;44389;51.578;5.456;2022-10-16T01:28:18;17.58;;;7.20;;
58621;SDS011;44389;51.578;5.456;2022-10-16T01:30:49;12.95;;;7.28;;
58621;SDS011;44389;51.578;5.456;2022-10-16T01:33:21;13.93;;;6.35;;
58621;SDS011;44389;51.578;5.456;2022-10-16T01:35:56;14.00;;;7.20;;
58621;SDS011;44389;51.578;5.456;2022-10-16T01:38:31;14.60;;;7.05;;
58621;SDS011;44389;51.578;5.456;2022-10-16T01:41:03;13.77;;;6.85;;
58621;SDS011;44389;51.578;5.456;2022-10-16T01:43:36;14.70;;;7.05;;
58621;SDS011;44389;51.578;5.456;2022-10-16T01:46:05;12.20;;;6.63;;
58621;SDS011;44389;51.578;5.456;2022-10-16T01:48:33;15.38;;;7.20;;
58621;SDS011;44389;51.578;5.456;2022-10-16T01:51:06;14.50;;;6.82;;
58621;SDS011;44389;51.578;5.456;2022-10-16T01:53:33;15.52;;;6.85;;
58621;SDS011;44389;51.578;5.456;2022-10-16T01:55:59;12.75;;;6.45;;
58621;SDS011;44389;51.578;5.456;2022-10-16T01:58:27;12.85;;;6.10;;
58621;SDS011;44389;51.578;5.456;2022-10-16T02:00:55;11.85;;;5.93;;
58621;SDS011;44389;51.578;5.456;2022-10-16T02:03:21;12.70;;;5.93;;
58621;SDS011;44389;51.578;5.456;2022-10-16T02:05:54;15.00;;;5.78;;
58621;SDS011;44389;51.578;5.456;2022-10-16T02:08:22;12.05;;;5.85;;
58621;SDS011;44389;51.578;5.456;2022-10-16T02:10:48;10.30;;;5.72;;
58621;SDS011;44389;51.578;5.456;2022-10-16T02:13:22;14.27;;;5.35;;
58621;SDS011;44389;51.578;5.456;2022-10-16T02:15:52;11.55;;;5.63;;
58621;SDS011;44389;51.578;5.456;2022-10-16T02:18:18;14.90;;;5.85;;
58621;SDS011;44389;51.578;5.456;2022-10-16T02:20:51;14.98;;;5.85;;
58621;SDS011;44389;51.578;5.456;2022-10-16T02:23:24;10.60;;;5.32;;
58621;SDS011;44389;51.578;5.456;2022-10-16T02:26:04;8.60;;;5.05;;
58621;SDS011;44389;51.578;5.456;2022-10-16T02:28:36;14.18;;;5.03;;
58621;SDS011;44389;51.578;5.456;2022-10-16T02:31:08;10.98;;;5.38;;
58621;SDS011;44389;51.578;5.456;2022-10-16T02:33:38;12.85;;;5.57;;
58621;SDS011;44389;51.578;5.456;2022-10-16T02:36:07;15.75;;;5.60;;
58621;SDS011;44389;51.578;5.456;2022-10-16T02:38:33;9.75;;;5.20;;
58621;SDS011;44389;51.578;5.456;2022-10-16T02:40:59;9.95;;;5.82;;
58621;SDS011;44389;51.578;5.456;2022-10-16T02:43:25;12.10;;;5.20;;
58621;SDS011;44389;51.578;5.456;2022-10-16T02:45:51;12.65;;;5.22;;
58621;SDS011;44389;51.578;5.456;2022-10-16T02:48:16;10.43;;;5.57;;
58621;SDS011;44389;51.578;5.456;2022-10-16T02:50:42;12.18;;;5.47;;
58621;SDS011;44389;51.578;5.456;2022-10-16T02:53:07;15.55;;;5.60;;
58621;SDS011;44389;51.578;5.456;2022-10-16T02:55:32;10.35;;;5.38;;
58621;SDS011;44389;51.578;5.456;2022-10-16T02:57:58;10.38;;;5.15;;
58621;SDS011;44389;51.578;5.456;2022-10-16T03:00:23;15.25;;;5.78;;
58621;SDS011;44389;51.578;5.456;2022-10-16T03:02:49;13.38;;;5.55;;
58621;SDS011;44389;51.578;5.456;2022-10-16T03:05:14;9.02;;;4.72;;
58621;SDS011;44389;51.578;5.456;2022-10-16T03:07:40;10.45;;;5.38;;
58621;SDS011;44389;51.578;5.456;2022-10-16T03:10:06;10.43;;;5.18;;
58621;SDS011;44389;51.578;5.456;2022-10-16T03:12:31;12.13;;;4.72;;
58621;SDS011;44389;51.578;5.456;2022-10-16T03:14:57;10.57;;;5.03;;
58621;SDS011;44389;51.578;5.456;2022-10-16T03:17:23;11.10;;;5.30;;
58621;SDS011;44389;51.578;5.456;2022-10-16T03:19:49;10.93;;;5.05;;
58621;SDS011;44389;51.578;5.456;2022-10-16T03:22:14;9.77;;;5.50;;
58621;SDS011;44389;51.578;5.456;2022-10-16T03:24:39;12.20;;;5.15;;
58621;SDS011;44389;51.578;5.456;2022-10-16T03:27:05;13.35;;;5.72;;
58621;SDS011;44389;51.578;5.456;2022-10-16T03:29:30;14.55;;;5.50;;
58621;SDS011;44389;51.578;5.456;2022-10-16T03:31:57;11.10;;;5.10;;
58621;SDS011;44389;51.578;5.456;2022-10-16T03:34:22;9.30;;;5.05;;
58621;SDS011;44389;51.578;5.456;2022-10-16T03:36:47;9.93;;;4.35;;
58621;SDS011;44389;51.578;5.456;2022-10-16T03:39:13;11.05;;;4.95;;
58621;SDS011;44389;51.578;5.456;2022-10-16T03:41:38;10.35;;;4.95;;
58621;SDS011;44389;51.578;5.456;2022-10-16T03:44:03;9.00;;;4.47;;
58621;SDS011;44389;51.578;5.456;2022-10-16T03:46:29;10.80;;;5.07;;
58621;SDS011;44389;51.578;5.456;2022-10-16T03:48:54;11.02;;;4.40;;
58621;SDS011;44389;51.578;5.456;2022-10-16T03:51:19;8.52;;;4.50;;
58621;SDS011;44389;51.578;5.456;2022-10-16T03:53:45;9.95;;;4.75;;
58621;SDS011;44389;51.578;5.456;2022-10-16T03:56:10;11.82;;;4.45;;
58621;SDS011;44389;51.578;5.456;2022-10-16T03:58:35;10.15;;;4.55;;
58621;SDS011;44389;51.578;5.456;2022-10-16T04:01:00;9.90;;;4.38;;
58621;SDS011;44389;51.578;5.456;2022-10-16T04:03:26;9.82;;;4.78;;
58621;SDS011;44389;51.578;5.456;2022-10-16T04:05:51;11.52;;;4.72;;
58621;SDS011;44389;51.578;5.456;2022-10-16T04:08:16;11.32;;;5.10;;
58621;SDS011;44389;51.578;5.456;2022-10-16T04:10:42;9.52;;;4.72;;
58621;SDS011;44389;51.578;5.456;2022-10-16T04:13:08;10.25;;;4.63;;
58621;SDS011;44389;51.578;5.456;2022-10-16T04:15:34;10.00;;;4.25;;
58621;SDS011;44389;51.578;5.456;2022-10-16T04:17:59;12.38;;;4.97;;
58621;SDS011;44389;51.578;5.456;2022-10-16T04:20:24;11.85;;;4.70;;
58621;SDS011;44389;51.578;5.456;2022-10-16T04:22:50;12.07;;;5.35;;
58621;SDS011;44389;51.578;5.456;2022-10-16T04:25:15;11.05;;;5.28;;
58621;SDS011;44389;51.578;5.456;2022-10-16T04:27:40;9.63;;;4.78;;
58621;SDS011;44389;51.578;5.456;2022-10-16T04:30:06;9.18;;;5.47;;
58621;SDS011;44389;51.578;5.456;2022-10-16T04:32:32;13.98;;;5.78;;
58621;SDS011;44389;51.578;5.456;2022-10-16T04:34:57;11.38;;;5.57;;
58621;SDS011;44389;51.578;5.456;2022-10-16T04:37:25;10.57;;;4.90;;
58621;SDS011;44389;51.578;5.456;2022-10-16T04:39:52;12.35;;;5.53;;
58621;SDS011;44389;51.578;5.456;2022-10-16T04:42:18;13.07;;;5.57;;
58621;SDS011;44389;51.578;5.456;2022-10-16T04:44:43;11.32;;;5.40;;
58621;SDS011;44389;51.578;5.456;2022-10-16T04:47:08;10.13;;;5.35;;
58621;SDS011;44389;51.578;5.456;2022-10-16T04:49:34;10.15;;;5.22;;
58621;SDS011;44389;51.578;5.456;2022-10-16T04:51:59;11.50;;;5.55;;
58621;SDS011;44389;51.578;5.456;2022-10-16T04:54:24;11.50;;;5.78;;
58621;SDS011;44389;51.578;5.456;2022-10-16T04:56:50;15.52;;;5.90;;
58621;SDS011;44389;51.578;5.456;2022-10-16T04:59:17;11.07;;;5.43;;
58621;SDS011;44389;51.578;5.456;2022-10-16T05:01:44;11.18;;;5.38;;
58621;SDS011;44389;51.578;5.456;2022-10-16T05:04:09;12.98;;;5.60;;
58621;SDS011;44389;51.578;5.456;2022-10-16T05:06:35;10.07;;;5.28;;
58621;SDS011;44389;51.578;5.456;2022-10-16T05:09:02;12.20;;;5.45;;
58621;SDS011;44389;51.578;5.456;2022-10-16T05:11:27;11.30;;;5.60;;
58621;SDS011;44389;51.578;5.456;2022-10-16T05:13:52;12.60;;;5.80;;
58621;SDS011;44389;51.578;5.456;2022-10-16T05:16:18;11.00;;;5.18;;
58621;SDS011;44389;51.578;5.456;2022-10-16T05:18:43;13.95;;;5.90;;
58621;SDS011;44389;51.578;5.456;2022-10-16T05:21:08;8.95;;;5.53;;
58621;SDS011;44389;51.578;5.456;2022-10-16T05:23:34;14.02;;;5.78;;
58621;SDS011;44389;51.578;5.456;2022-10-16T05:25:59;13.70;;;6.18;;
58621;SDS011;44389;51.578;5.456;2022-10-16T05:28:25;11.25;;;5.50;;
58621;SDS011;44389;51.578;5.456;2022-10-16T05:30:51;13.93;;;5.85;;
58621;SDS011;44389;51.578;5.456;2022-10-16T05:33:17;15.77;;;5.20;;
58621;SDS011;44389;51.578;5.456;2022-10-16T05:35:44;16.50;;;6.20;;
58621;SDS011;44389;51.578;5.456;2022-10-16T05:38:10;11.65;;;5.85;;
58621;SDS011;44389;51.578;5.456;2022-10-16T05:40:35;10.40;;;4.40;;
58621;SDS011;44389;51.578;5.456;2022-10-16T05:43:00;12.63;;;5.93;;
58621;SDS011;44389;51.578;5.456;2022-10-16T05:45:25;12.73;;;5.43;;
58621;SDS011;44389;51.578;5.456;2022-10-16T05:47:51;11.68;;;5.72;;
58621;SDS011;44389;51.578;5.456;2022-10-16T05:50:16;13.65;;;5.85;;
58621;SDS011;44389;51.578;5.456;2022-10-16T05:52:41;16.58;;;5.50;;
58621;SDS011;44389;51.578;5.456;2022-10-16T05:55:07;13.75;;;6.22;;
58621;SDS011;44389;51.578;5.456;2022-10-16T05:57:32;13.32;;;5.53;;
58621;SDS011;44389;51.578;5.456;2022-10-16T05:59:57;11.30;;;5.18;;
58621;SDS011;44389;51.578;5.456;2022-10-16T06:02:23;11.48;;;5.75;;
58621;SDS011;44389;51.578;5.456;2022-10-16T06:04:48;10.35;;;5.28;;
58621;SDS011;44389;51.578;5.456;2022-10-16T06:07:13;19.30;;;6.22;;
58621;SDS011;44389;51.578;5.456;2022-10-16T06:09:38;15.35;;;6.25;;
58621;SDS011;44389;51.578;5.456;2022-10-16T06:12:04;17.02;;;5.53;;
58621;SDS011;44389;51.578;5.456;2022-10-16T06:14:29;13.77;;;5.68;;
58621;SDS011;44389;51.578;5.456;2022-10-16T06:16:54;15.32;;;5.90;;
58621;SDS011;44389;51.578;5.456;2022-10-16T06:19:20;12.25;;;6.35;;
58621;SDS011;44389;51.578;5.456;2022-10-16T06:21:45;15.77;;;5.93;;
58621;SDS011;44389;51.578;5.456;2022-10-16T06:24:10;14.18;;;6.00;;
58621;SDS011;44389;51.578;5.456;2022-10-16T06:26:36;18.25;;;6.93;;
58621;SDS011;44389;51.578;5.456;2022-10-16T06:29:02;18.33;;;6.35;;
58621;SDS011;44389;51.578;5.456;2022-10-16T06:31:27;17.10;;;6.40;;
58621;SDS011;44389;51.578;5.456;2022-10-16T06:33:56;16.67;;;6.70;;
58621;SDS011;44389;51.578;5.456;2022-10-16T06:36:22;13.95;;;6.70;;
58621;SDS011;44389;51.578;5.456;2022-10-16T06:38:48;14.27;;;7.10;;
58621;SDS011;44389;51.578;5.456;2022-10-16T06:41:15;11.80;;;6.15;;
58621;SDS011;44389;51.578;5.456;2022-10-16T06:43:43;18.42;;;6.68;;
58621;SDS011;44389;51.578;5.456;2022-10-16T06:46:12;13.05;;;5.68;;
58621;SDS011;44389;51.578;5.456;2022-10-16T06:51:12;15.73;;;6.43;;
58621;SDS011;44389;51.578;5.456;2022-10-16T06:53:42;19.77;;;6.75;;
58621;SDS011;44389;51.578;5.456;2022-10-16T06:58:40;17.00;;;6.28;;
58621;SDS011;44389;51.578;5.456;2022-10-16T07:01:07;17.63;;;6.60;;
58621;SDS011;44389;51.578;5.456;2022-10-16T07:03:32;13.60;;;6.35;;
58621;SDS011;44389;51.578;5.456;2022-10-16T07:06:01;11.48;;;5.90;;
58621;SDS011;44389;51.578;5.456;2022-10-16T07:08:31;13.20;;;5.80;;
58621;SDS011;44389;51.578;5.456;2022-10-16T07:11:03;17.42;;;5.60;;
58621;SDS011;44389;51.578;5.456;2022-10-16T07:13:34;11.07;;;5.53;;
58621;SDS011;44389;51.578;5.456;2022-10-16T07:16:04;15.00;;;5.50;;
58621;SDS011;44389;51.578;5.456;2022-10-16T07:18:34;12.50;;;5.43;;
58621;SDS011;44389;51.578;5.456;2022-10-16T07:21:41;12.38;;;4.97;;
58621;SDS011;44389;51.578;5.456;2022-10-16T07:23:50;14.90;;;5.43;;
58621;SDS011;44389;51.578;5.456;2022-10-16T07:26:16;14.95;;;5.68;;
58621;SDS011;44389;51.578;5.456;2022-10-16T07:28:42;9.48;;;4.90;;
58621;SDS011;44389;51.578;5.456;2022-10-16T07:31:09;11.88;;;4.63;;
58621;SDS011;44389;51.578;5.456;2022-10-16T07:33:37;11.45;;;4.53;;
58621;SDS011;44389;51.578;5.456;2022-10-16T07:36:03;17.17;;;5.23;;
58621;SDS011;44389;51.578;5.456;2022-10-16T07:38:29;12.07;;;4.85;;
58621;SDS011;44389;51.578;5.456;2022-10-16T07:40:58;12.20;;;4.97;;
58621;SDS011;44389;51.578;5.456;2022-10-16T07:43:25;10.07;;;4.68;;
58621;SDS011;44389;51.578;5.456;2022-10-16T07:45:51;11.10;;;4.47;;
58621;SDS011;44389;51.578;5.456;2022-10-16T07:48:17;9.55;;;4.35;;
58621;SDS011;44389;51.578;5.456;2022-10-16T07:50:43;11.45;;;5.28;;
58621;SDS011;44389;51.578;5.456;2022-10-16T07:53:09;11.77;;;4.60;;
58621;SDS011;44389;51.578;5.456;2022-10-16T07:55:35;10.68;;;4.10;;
58621;SDS011;44389;51.578;5.456;2022-10-16T07:58:00;9.98;;;4.35;;
58621;SDS011;44389;51.578;5.456;2022-10-16T08:00:26;9.18;;;4.13;;
58621;SDS011;44389;51.578;5.456;2022-10-16T08:02:51;15.10;;;4.45;;
58621;SDS011;44389;51.578;5.456;2022-10-16T08:05:16;11.15;;;4.05;;
58621;SDS011;44389;51.578;5.456;2022-10-16T08:07:41;10.30;;;4.45;;
58621;SDS011;44389;51.578;5.456;2022-10-16T08:10:10;11.75;;;3.97;;
58621;SDS011;44389;51.578;5.456;2022-10-16T08:12:41;9.23;;;3.78;;
58621;SDS011;44389;51.578;5.456;2022-10-16T08:15:06;8.05;;;3.95;;
58621;SDS011;44389;51.578;5.456;2022-10-16T08:17:32;8.18;;;3.50;;
58621;SDS011;44389;51.578;5.456;2022-10-16T08:19:57;8.73;;;3.72;;
58621;SDS011;44389;51.578;5.456;2022-10-16T08:22:23;11.10;;;3.95;;
58621;SDS011;44389;51.578;5.456;2022-10-16T08:24:48;14.68;;;4.32;;
58621;SDS011;44389;51.578;5.456;2022-10-16T08:27:13;9.95;;;3.92;;
58621;SDS011;44389;51.578;5.456;2022-10-16T08:29:38;12.90;;;4.32;;
58621;SDS011;44389;51.578;5.456;2022-10-16T08:32:04;11.70;;;4.47;;
58621;SDS011;44389;51.578;5.456;2022-10-16T08:34:29;11.27;;;3.70;;
58621;SDS011;44389;51.578;5.456;2022-10-16T08:36:55;8.80;;;3.72;;
58621;SDS011;44389;51.578;5.456;2022-10-16T08:39:20;12.05;;;3.92;;
58621;SDS011;44389;51.578;5.456;2022-10-16T08:47:13;15.80;;;4.05;;
58621;SDS011;44389;51.578;5.456;2022-10-16T08:49:53;9.18;;;3.72;;
58621;SDS011;44389;51.578;5.456;2022-10-16T08:52:20;16.15;;;3.85;;
58621;SDS011;44389;51.578;5.456;2022-10-16T08:54:46;10.52;;;3.53;;
58621;SDS011;44389;51.578;5.456;2022-10-16T08:57:20;11.15;;;2.90;;
58621;SDS011;44389;51.578;5.456;2022-10-16T08:59:46;11.77;;;3.05;;
58621;SDS011;44389;51.578;5.456;2022-10-16T09:02:22;10.45;;;3.72;;
58621;SDS011;44389;51.578;5.456;2022-10-16T09:04:58;10.50;;;3.00;;
58621;SDS011;44389;51.578;5.456;2022-10-16T09:07:32;9.57;;;3.53;;
58621;SDS011;44389;51.578;5.456;2022-10-16T09:10:16;9.10;;;3.10;;
58621;SDS011;44389;51.578;5.456;2022-10-16T09:12:55;14.93;;;3.33;;
58621;SDS011;44389;51.578;5.456;2022-10-16T09:15:24;9.10;;;2.47;;
58621;SDS011;44389;51.578;5.456;2022-10-16T09:18:05;13.15;;;3.35;;
58621;SDS011;44389;51.578;5.456;2022-10-16T09:25:38;10.13;;;2.85;;
58621;SDS011;44389;51.578;5.456;2022-10-16T09:28:04;9.63;;;2.50;;
58621;SDS011;44389;51.578;5.456;2022-10-16T09:30:30;11.75;;;3.00;;
58621;SDS011;44389;51.578;5.456;2022-10-16T09:32:55;12.57;;;2.88;;
58621;SDS011;44389;51.578;5.456;2022-10-16T09:35:25;12.75;;;3.08;;
58621;SDS011;44389;51.578;5.456;2022-10-16T09:37:56;14.20;;;3.30;;
58621;SDS011;44389;51.578;5.456;2022-10-16T09:40:32;12.57;;;2.55;;
58621;SDS011;44389;51.578;5.456;2022-10-16T09:43:18;13.93;;;3.15;;
58621;SDS011;44389;51.578;5.456;2022-10-16T09:48:51;14.65;;;3.60;;
58621;SDS011;44389;51.578;5.456;2022-10-16T09:51:25;13.40;;;2.88;;
58621;SDS011;44389;51.578;5.456;2022-10-16T09:53:59;21.92;;;3.70;;
58621;SDS011;44389;51.578;5.456;2022-10-16T09:56:30;14.52;;;3.63;;
58621;SDS011;44389;51.578;5.456;2022-10-16T09:58:58;18.85;;;3.83;;
58621;SDS011;44389;51.578;5.456;2022-10-16T10:01:35;16.40;;;3.35;;
58621;SDS011;44389;51.578;5.456;2022-10-16T10:04:04;19.42;;;3.63;;
58621;SDS011;44389;51.578;5.456;2022-10-16T10:06:33;15.60;;;3.73;;
58621;SDS011;44389;51.578;5.456;2022-10-16T10:11:44;17.90;;;3.10;;
58621;SDS011;44389;51.578;5.456;2022-10-16T10:17:16;10.73;;;3.05;;
58621;SDS011;44389;51.578;5.456;2022-10-16T10:19:52;21.33;;;3.90;;
58621;SDS011;44389;51.578;5.456;2022-10-16T10:24:59;22.85;;;3.95;;
58621;SDS011;44389;51.578;5.456;2022-10-16T10:27:35;17.35;;;4.13;;
58621;SDS011;44389;51.578;5.456;2022-10-16T10:36:14;16.35;;;3.88;;
58621;SDS011;44389;51.578;5.456;2022-10-16T10:52:05;22.52;;;3.92;;
58621;SDS011;44389;51.578;5.456;2022-10-16T10:57:22;18.17;;;3.15;;
58621;SDS011;44389;51.578;5.456;2022-10-16T10:59:55;24.05;;;3.60;;
58621;SDS011;44389;51.578;5.456;2022-10-16T11:05:46;18.50;;;4.45;;
58621;SDS011;44389;51.578;5.456;2022-10-16T11:11:16;25.27;;;3.97;;
58621;SDS011;44389;51.578;5.456;2022-10-16T11:13:58;17.52;;;3.20;;
58621;SDS011;44389;51.578;5.456;2022-10-16T11:19:34;16.20;;;3.25;;
58621;SDS011;44389;51.578;5.456;2022-10-16T11:24:52;20.02;;;3.03;;
58621;SDS011;44389;51.578;5.456;2022-10-16T11:30:28;22.92;;;3.97;;
58621;SDS011;44389;51.578;5.456;2022-10-16T11:33:10;27.88;;;4.65;;
58621;SDS011;44389;51.578;5.456;2022-10-16T11:35:42;23.33;;;3.83;;
58621;SDS011;44389;51.578;5.456;2022-10-16T11:38:11;20.08;;;3.60;;
58621;SDS011;44389;51.578;5.456;2022-10-16T11:40:42;32.08;;;4.13;;
58621;SDS011;44389;51.578;5.456;2022-10-16T11:43:24;30.50;;;4.65;;
58621;SDS011;44389;51.578;5.456;2022-10-16T11:45:53;27.67;;;3.97;;
58621;SDS011;44389;51.578;5.456;2022-10-16T11:48:33;26.50;;;4.50;;
58621;SDS011;44389;51.578;5.456;2022-10-16T11:51:13;21.00;;;3.42;;
58621;SDS011;44389;51.578;5.456;2022-10-16T11:53:47;26.80;;;4.10;;
58621;SDS011;44389;51.578;5.456;2022-10-16T11:56:19;26.38;;;4.32;;
58621;SDS011;44389;51.578;5.456;2022-10-16T12:09:04;25.50;;;3.60;;
58621;SDS011;44389;51.578;5.456;2022-10-16T12:11:37;23.88;;;3.50;;
58621;SDS011;44389;51.578;5.456;2022-10-16T12:14:04;23.33;;;2.78;;
58621;SDS011;44389;51.578;5.456;2022-10-16T12:17:01;18.85;;;3.50;;
58621;SDS011;44389;51.578;5.456;2022-10-16T12:19:30;22.15;;;3.25;;
58621;SDS011;44389;51.578;5.456;2022-10-16T12:21:59;23.35;;;3.47;;
58621;SDS011;44389;51.578;5.456;2022-10-16T12:26:57;25.25;;;4.22;;
58621;SDS011;44389;51.578;5.456;2022-10-16T12:29:28;26.42;;;3.53;;
58621;SDS011;44389;51.578;5.456;2022-10-16T12:31:58;19.13;;;3.55;;
58621;SDS011;44389;51.578;5.456;2022-10-16T12:34:27;23.25;;;3.50;;
58621;SDS011;44389;51.578;5.456;2022-10-16T12:37:20;20.00;;;3.22;;
58621;SDS011;44389;51.578;5.456;2022-10-16T12:39:48;17.83;;;3.28;;
58621;SDS011;44389;51.578;5.456;2022-10-16T12:44:49;21.92;;;4.22;;
58621;SDS011;44389;51.578;5.456;2022-10-16T12:47:34;23.52;;;3.65;;
58621;SDS011;44389;51.578;5.456;2022-10-16T12:50:03;17.80;;;3.35;;
58621;SDS011;44389;51.578;5.456;2022-10-16T12:52:47;21.38;;;3.83;;
58621;SDS011;44389;51.578;5.456;2022-10-16T12:55:16;20.58;;;3.50;;
58621;SDS011;44389;51.578;5.456;2022-10-16T13:06:01;18.83;;;2.97;;
58621;SDS011;44389;51.578;5.456;2022-10-16T13:08:50;20.38;;;3.20;;
58621;SDS011;44389;51.578;5.456;2022-10-16T13:11:24;16.40;;;2.63;;
58621;SDS011;44389;51.578;5.456;2022-10-16T13:14:04;15.80;;;2.53;;
58621;SDS011;44389;51.578;5.456;2022-10-16T13:30:26;19.75;;;3.38;;
58621;SDS011;44389;51.578;5.456;2022-10-16T13:32:57;17.50;;;3.13;;
58621;SDS011;44389;51.578;5.456;2022-10-16T13:35:27;16.52;;;2.88;;
58621;SDS011;44389;51.578;5.456;2022-10-16T13:38:14;21.13;;;2.88;;
58621;SDS011;44389;51.578;5.456;2022-10-16T13:40:49;17.27;;;3.17;;
58621;SDS011;44389;51.578;5.456;2022-10-16T13:43:17;18.52;;;2.95;;
58621;SDS011;44389;51.578;5.456;2022-10-16T13:45:52;21.83;;;3.53;;
58621;SDS011;44389;51.578;5.456;2022-10-16T13:48:22;18.15;;;3.08;;
58621;SDS011;44389;51.578;5.456;2022-10-16T13:50:57;25.25;;;3.97;;
58621;SDS011;44389;51.578;5.456;2022-10-16T13:53:29;14.85;;;2.85;;
58621;SDS011;44389;51.578;5.456;2022-10-16T13:55:56;21.67;;;3.13;;
58621;SDS011;44389;51.578;5.456;2022-10-16T13:58:21;20.98;;;3.60;;
58621;SDS011;44389;51.578;5.456;2022-10-16T14:01:00;24.00;;;3.80;;
58621;SDS011;44389;51.578;5.456;2022-10-16T14:03:28;19.15;;;2.60;;
58621;SDS011;44389;51.578;5.456;2022-10-16T14:05:56;19.20;;;2.97;;
58621;SDS011;44389;51.578;5.456;2022-10-16T14:08:24;20.70;;;3.30;;
58621;SDS011;44389;51.578;5.456;2022-10-16T14:10:52;22.80;;;3.25;;
58621;SDS011;44389;51.578;5.456;2022-10-16T14:13:21;17.50;;;2.92;;
58621;SDS011;44389;51.578;5.456;2022-10-16T14:15:53;15.18;;;3.20;;
58621;SDS011;44389;51.578;5.456;2022-10-16T14:18:20;19.10;;;3.58;;
58621;SDS011;44389;51.578;5.456;2022-10-16T14:20:48;13.43;;;2.42;;
58621;SDS011;44389;51.578;5.456;2022-10-16T14:23:28;18.23;;;2.95;;
58621;SDS011;44389;51.578;5.456;2022-10-16T14:30:59;14.60;;;2.83;;
58621;SDS011;44389;51.578;5.456;2022-10-16T14:36:04;25.88;;;2.75;;
58621;SDS011;44389;51.578;5.456;2022-10-16T14:38:35;20.08;;;3.20;;
58621;SDS011;44389;51.578;5.456;2022-10-16T14:41:02;17.83;;;3.13;;
58621;SDS011;44389;51.578;5.456;2022-10-16T14:43:41;17.83;;;4.20;;
58621;SDS011;44389;51.578;5.456;2022-10-16T14:46:12;19.33;;;4.30;;
58621;SDS011;44389;51.578;5.456;2022-10-16T14:48:40;20.52;;;4.38;;
58621;SDS011;44389;51.578;5.456;2022-10-16T14:51:08;24.30;;;4.53;;
58621;SDS011;44389;51.578;5.456;2022-10-16T14:53:39;19.00;;;4.05;;
58621;SDS011;44389;51.578;5.456;2022-10-16T14:56:17;14.23;;;3.42;;
58621;SDS011;44389;51.578;5.456;2022-10-16T14:58:45;13.35;;;3.63;;
58621;SDS011;44389;51.578;5.456;2022-10-16T15:01:10;19.35;;;4.18;;
58621;SDS011;44389;51.578;5.456;2022-10-16T15:03:36;21.08;;;3.83;;
58621;SDS011;44389;51.578;5.456;2022-10-16T15:06:02;16.80;;;3.55;;
58621;SDS011;44389;51.578;5.456;2022-10-16T15:08:28;15.88;;;4.07;;
58621;SDS011;44389;51.578;5.456;2022-10-16T15:10:53;25.75;;;3.72;;
58621;SDS011;44389;51.578;5.456;2022-10-16T15:13:18;16.60;;;3.22;;
58621;SDS011;44389;51.578;5.456;2022-10-16T15:15:44;14.55;;;3.45;;
58621;SDS011;44389;51.578;5.456;2022-10-16T15:18:11;20.83;;;6.00;;
58621;SDS011;44389;51.578;5.456;2022-10-16T15:20:37;15.73;;;4.35;;
58621;SDS011;44389;51.578;5.456;2022-10-16T15:23:05;15.35;;;4.10;;
58621;SDS011;44389;51.578;5.456;2022-10-16T15:28:07;15.15;;;3.38;;
58621;SDS011;44389;51.578;5.456;2022-10-16T15:30:33;15.27;;;3.70;;
58621;SDS011;44389;51.578;5.456;2022-10-16T15:32:59;18.42;;;5.63;;
58621;SDS011;44389;51.578;5.456;2022-10-16T15:35:25;18.45;;;8.88;;
58621;SDS011;44389;51.578;5.456;2022-10-16T15:37:50;18.02;;;8.23;;
58621;SDS011;44389;51.578;5.456;2022-10-16T15:40:16;21.55;;;4.97;;
58621;SDS011;44389;51.578;5.456;2022-10-16T15:42:42;11.02;;;3.58;;
58621;SDS011;44389;51.578;5.456;2022-10-16T15:45:08;20.13;;;10.32;;
58621;SDS011;44389;51.578;5.456;2022-10-16T15:47:34;14.38;;;4.97;;
58621;SDS011;44389;51.578;5.456;2022-10-16T15:50:00;16.38;;;5.13;;
58621;SDS011;44389;51.578;5.456;2022-10-16T15:52:25;15.30;;;3.78;;
58621;SDS011;44389;51.578;5.456;2022-10-16T15:54:51;20.45;;;4.40;;
58621;SDS011;44389;51.578;5.456;2022-10-16T15:57:16;15.93;;;4.05;;
58621;SDS011;44389;51.578;5.456;2022-10-16T15:59:41;13.70;;;5.32;;
58621;SDS011;44389;51.578;5.456;2022-10-16T16:02:08;22.15;;;6.00;;
58621;SDS011;44389;51.578;5.456;2022-10-16T16:04:33;20.17;;;7.80;;
58621;SDS011;44389;51.578;5.456;2022-10-16T16:06:59;17.48;;;6.25;;
58621;SDS011;44389;51.578;5.456;2022-10-16T16:09:26;16.80;;;4.40;;
58621;SDS011;44389;51.578;5.456;2022-10-16T16:11:51;16.20;;;4.97;;
58621;SDS011;44389;51.578;5.456;2022-10-16T16:14:17;16.00;;;4.43;;
58621;SDS011;44389;51.578;5.456;2022-10-16T16:16:42;22.52;;;5.05;;
58621;SDS011;44389;51.578;5.456;2022-10-16T16:19:08;15.80;;;4.47;;
58621;SDS011;44389;51.578;5.456;2022-10-16T16:21:34;15.77;;;4.30;;
58621;SDS011;44389;51.578;5.456;2022-10-16T16:24:00;13.07;;;4.68;;
58621;SDS011;44389;51.578;5.456;2022-10-16T16:26:28;21.38;;;5.75;;
58621;SDS011;44389;51.578;5.456;2022-10-16T16:28:59;18.05;;;5.22;;
58621;SDS011;44389;51.578;5.456;2022-10-16T16:31:25;16.45;;;5.45;;
58621;SDS011;44389;51.578;5.456;2022-10-16T16:33:52;14.53;;;5.07;;
58621;SDS011;44389;51.578;5.456;2022-10-16T16:36:18;15.10;;;5.53;;
58621;SDS011;44389;51.578;5.456;2022-10-16T16:38:44;15.93;;;5.97;;
58621;SDS011;44389;51.578;5.456;2022-10-16T16:41:16;15.75;;;6.07;;
58621;SDS011;44389;51.578;5.456;2022-10-16T16:43:43;14.55;;;6.13;;
58621;SDS011;44389;51.578;5.456;2022-10-16T16:46:10;14.88;;;5.32;;